<?xml version="1.0" encoding="UTF-8" standalone="no" ?>
<gpx xmlns="http://www.topografix.com/GPX/1/1" xmlns:xsi="http://www.w3.org/2001/XMLSchema-instance" xsi:schemaLocation="http://www.topografix.com/GPX/1/1 http://www.topografix.com/GPX/1/1/gpx.xsd" version="1.1" creator="VisuGPX - https://www.visugpx.com">
  <metadata>
    <name>Les Ronzières ( Les Salles)  via le Gros Sapin </name>
    <desc><![CDATA[fait le 04 04 2023 départ d'un lieu privé - attention en pierrier a eviter ( tracé rouge) -des demi-tours ça ne passe pas! ]]></desc>
  </metadata>
  <wpt lat="45.87783" lon="3.76689">
    <ele>867.2</ele>
    <name><![CDATA[Virage à gauche]]></name>
  </wpt>
  <trk>
    <name><![CDATA[4km de pierrier a eviter.  ]]></name>
    <extensions>
      <line xmlns="http://www.topografix.com/GPX/gpx_style/0/2">
        <color>ff0019</color>
        <width>4</width>
      </line>
    </extensions>
    <trkseg>
      <trkpt lat="45.91423" lon="3.72892">
        <ele>1102</ele>
        <time>2023-04-05T16:19:42Z</time>
        <extensions>
          <visugpx:TrkExtension xmlns:visugpx="https://www.visugpx.com/editgpx/">
            <visugpx:node>3</visugpx:node>
            </visugpx:TrkExtension>
        </extensions>
      </trkpt>
      <trkpt lat="45.91415" lon="3.72894">
        <ele>1102</ele>
        <time>2023-04-05T16:19:49Z</time>
      </trkpt>
      <trkpt lat="45.91371" lon="3.72916">
        <ele>1103</ele>
        <time>2023-04-05T16:20:26Z</time>
      </trkpt>
      <trkpt lat="45.91344" lon="3.72923">
        <ele>1104</ele>
        <time>2023-04-05T16:20:48Z</time>
      </trkpt>
      <trkpt lat="45.91288" lon="3.72978">
        <ele>1111</ele>
        <time>2023-04-05T16:21:43Z</time>
      </trkpt>
      <trkpt lat="45.91245" lon="3.73013">
        <ele>1116</ele>
        <time>2023-04-05T16:22:22Z</time>
      </trkpt>
      <trkpt lat="45.91232" lon="3.73032">
        <ele>1117</ele>
        <time>2023-04-05T16:22:37Z</time>
      </trkpt>
      <trkpt lat="45.91189" lon="3.73123">
        <ele>1118</ele>
        <time>2023-04-05T16:23:38Z</time>
      </trkpt>
      <trkpt lat="45.91154" lon="3.73253">
        <ele>1120</ele>
        <time>2023-04-05T16:24:56Z</time>
      </trkpt>
      <trkpt lat="45.91096" lon="3.73329">
        <ele>1124</ele>
        <time>2023-04-05T16:25:59Z</time>
      </trkpt>
      <trkpt lat="45.91064" lon="3.73359">
        <ele>1122</ele>
        <time>2023-04-05T16:26:29Z</time>
      </trkpt>
      <trkpt lat="45.91051" lon="3.73379">
        <ele>1120</ele>
        <time>2023-04-05T16:26:45Z</time>
      </trkpt>
      <trkpt lat="45.91048" lon="3.73391">
        <ele>1119</ele>
        <time>2023-04-05T16:26:52Z</time>
      </trkpt>
      <trkpt lat="45.91049" lon="3.73457">
        <ele>1119</ele>
        <time>2023-04-05T16:27:28Z</time>
      </trkpt>
      <trkpt lat="45.91074" lon="3.73579">
        <ele>1126</ele>
        <time>2023-04-05T16:28:39Z</time>
      </trkpt>
      <trkpt lat="45.9108" lon="3.73636">
        <ele>1128</ele>
        <time>2023-04-05T16:29:11Z</time>
      </trkpt>
      <trkpt lat="45.91056" lon="3.73714">
        <ele>1132</ele>
        <time>2023-04-05T16:29:59Z</time>
      </trkpt>
      <trkpt lat="45.91046" lon="3.73766">
        <ele>1134</ele>
        <time>2023-04-05T16:30:29Z</time>
      </trkpt>
      <trkpt lat="45.91022" lon="3.73823">
        <ele>1135</ele>
        <time>2023-04-05T16:31:06Z</time>
      </trkpt>
      <trkpt lat="45.90926" lon="3.73961">
        <ele>1137</ele>
        <time>2023-04-05T16:32:55Z</time>
      </trkpt>
      <trkpt lat="45.90911" lon="3.73979">
        <ele>1137</ele>
        <time>2023-04-05T16:33:10Z</time>
      </trkpt>
      <trkpt lat="45.90846" lon="3.74034">
        <ele>1142</ele>
        <time>2023-04-05T16:34:11Z</time>
      </trkpt>
      <trkpt lat="45.9081" lon="3.74056">
        <ele>1144</ele>
        <time>2023-04-05T16:34:42Z</time>
      </trkpt>
      <trkpt lat="45.90719" lon="3.74086">
        <ele>1149</ele>
        <time>2023-04-05T16:35:57Z</time>
      </trkpt>
      <trkpt lat="45.9064" lon="3.74078">
        <ele>1155</ele>
        <time>2023-04-05T16:37:00Z</time>
      </trkpt>
      <trkpt lat="45.90611" lon="3.74083">
        <ele>1156</ele>
        <time>2023-04-05T16:37:24Z</time>
      </trkpt>
      <trkpt lat="45.90534" lon="3.74107">
        <ele>1158</ele>
        <time>2023-04-05T16:38:27Z</time>
      </trkpt>
      <trkpt lat="45.90524" lon="3.74106">
        <ele>1159</ele>
        <time>2023-04-05T16:38:35Z</time>
      </trkpt>
      <trkpt lat="45.90504" lon="3.74113">
        <ele>1160</ele>
        <time>2023-04-05T16:38:51Z</time>
      </trkpt>
      <trkpt lat="45.90449" lon="3.74148">
        <ele>1162</ele>
        <time>2023-04-05T16:39:40Z</time>
      </trkpt>
      <trkpt lat="45.904" lon="3.74194">
        <ele>1161</ele>
        <time>2023-04-05T16:40:26Z</time>
      </trkpt>
      <trkpt lat="45.90348" lon="3.7426">
        <ele>1159</ele>
        <time>2023-04-05T16:41:22Z</time>
      </trkpt>
      <trkpt lat="45.90325" lon="3.7429">
        <ele>1159</ele>
        <time>2023-04-05T16:41:47Z</time>
      </trkpt>
      <trkpt lat="45.90267" lon="3.74386">
        <ele>1148</ele>
        <time>2023-04-05T16:42:58Z</time>
      </trkpt>
      <trkpt lat="45.9021" lon="3.74456">
        <ele>1141</ele>
        <time>2023-04-05T16:43:58Z</time>
      </trkpt>
      <trkpt lat="45.90177" lon="3.74482">
        <ele>1140</ele>
        <time>2023-04-05T16:44:28Z</time>
      </trkpt>
      <trkpt lat="45.90141" lon="3.74503">
        <ele>1142</ele>
        <time>2023-04-05T16:44:59Z</time>
      </trkpt>
      <trkpt lat="45.90092" lon="3.7451">
        <ele>1145</ele>
        <time>2023-04-05T16:45:38Z</time>
      </trkpt>
      <trkpt lat="45.90064" lon="3.74502">
        <ele>1144</ele>
        <time>2023-04-05T16:46:01Z</time>
      </trkpt>
      <trkpt lat="45.90045" lon="3.74507">
        <ele>1142</ele>
        <time>2023-04-05T16:46:17Z</time>
      </trkpt>
      <trkpt lat="45.90027" lon="3.74519">
        <ele>1140</ele>
        <time>2023-04-05T16:46:33Z</time>
      </trkpt>
      <trkpt lat="45.89972" lon="3.74576">
        <ele>1134</ele>
        <time>2023-04-05T16:47:27Z</time>
      </trkpt>
      <trkpt lat="45.89931" lon="3.74612">
        <ele>1128</ele>
        <time>2023-04-05T16:48:05Z</time>
      </trkpt>
      <trkpt lat="45.8991" lon="3.74641">
        <ele>1126</ele>
        <time>2023-04-05T16:48:29Z</time>
      </trkpt>
      <trkpt lat="45.89888" lon="3.74689">
        <ele>1124</ele>
        <time>2023-04-05T16:49:01Z</time>
      </trkpt>
      <trkpt lat="45.89845" lon="3.74761">
        <ele>1119</ele>
        <time>2023-04-05T16:49:54Z</time>
      </trkpt>
      <trkpt lat="45.8982" lon="3.74782">
        <ele>1114</ele>
        <time>2023-04-05T16:50:17Z</time>
      </trkpt>
      <trkpt lat="45.89767" lon="3.74815">
        <ele>1108</ele>
        <time>2023-04-05T16:51:03Z</time>
      </trkpt>
      <trkpt lat="45.89736" lon="3.74847">
        <ele>1102</ele>
        <time>2023-04-05T16:51:34Z</time>
      </trkpt>
      <trkpt lat="45.89663" lon="3.74878">
        <ele>1085</ele>
        <time>2023-04-05T16:52:34Z</time>
      </trkpt>
      <trkpt lat="45.89642" lon="3.74906">
        <ele>1078</ele>
        <time>2023-04-05T16:52:57Z</time>
      </trkpt>
      <trkpt lat="45.89608" lon="3.74934">
        <ele>1067</ele>
        <time>2023-04-05T16:53:29Z</time>
      </trkpt>
      <trkpt lat="45.8959" lon="3.74944">
        <ele>1062</ele>
        <time>2023-04-05T16:53:44Z</time>
      </trkpt>
      <trkpt lat="45.89561" lon="3.74946">
        <ele>1056</ele>
        <time>2023-04-05T16:54:07Z</time>
      </trkpt>
      <trkpt lat="45.89546" lon="3.7496">
        <ele>1053</ele>
        <time>2023-04-05T16:54:22Z</time>
      </trkpt>
      <trkpt lat="45.89519" lon="3.74997">
        <ele>1051</ele>
        <time>2023-04-05T16:54:52Z</time>
      </trkpt>
      <trkpt lat="45.89493" lon="3.75016">
        <ele>1046</ele>
        <time>2023-04-05T16:55:15Z</time>
      </trkpt>
      <trkpt lat="45.89465" lon="3.75024">
        <ele>1041</ele>
        <time>2023-04-05T16:55:38Z</time>
      </trkpt>
      <trkpt lat="45.8942" lon="3.75045">
        <ele>1034</ele>
        <time>2023-04-05T16:56:16Z</time>
      </trkpt>
      <trkpt lat="45.89373" lon="3.75052">
        <ele>1027</ele>
        <time>2023-04-05T16:56:54Z</time>
      </trkpt>
      <trkpt lat="45.89324" lon="3.75052">
        <ele>1019</ele>
        <time>2023-04-05T16:57:33Z</time>
      </trkpt>
      <trkpt lat="45.89288" lon="3.7507">
        <ele>1013</ele>
        <time>2023-04-05T16:58:03Z</time>
      </trkpt>
      <trkpt lat="45.89217" lon="3.75086">
        <ele>1000</ele>
        <time>2023-04-05T16:59:01Z</time>
      </trkpt>
      <trkpt lat="45.89194" lon="3.75106">
        <ele>995</ele>
        <time>2023-04-05T16:59:22Z</time>
      </trkpt>
      <trkpt lat="45.89132" lon="3.75139">
        <ele>987</ele>
        <time>2023-04-05T17:00:15Z</time>
      </trkpt>
      <trkpt lat="45.89104" lon="3.75149">
        <ele>985</ele>
        <time>2023-04-05T17:00:38Z</time>
      </trkpt>
      <trkpt lat="45.89078" lon="3.75133">
        <ele>984</ele>
        <time>2023-04-05T17:01:01Z</time>
      </trkpt>
      <trkpt lat="45.8905" lon="3.7514">
        <ele>985</ele>
        <time>2023-04-05T17:01:24Z</time>
      </trkpt>
      <trkpt lat="45.8901" lon="3.75177">
        <ele>987</ele>
        <time>2023-04-05T17:02:02Z</time>
      </trkpt>
      <trkpt lat="45.88966" lon="3.75248">
        <ele>979</ele>
        <time>2023-04-05T17:02:55Z</time>
      </trkpt>
      <trkpt lat="45.88943" lon="3.75274">
        <ele>973</ele>
        <time>2023-04-05T17:03:18Z</time>
      </trkpt>
      <trkpt lat="45.88925" lon="3.75284">
        <ele>969</ele>
        <time>2023-04-05T17:03:34Z</time>
      </trkpt>
      <trkpt lat="45.88906" lon="3.75284">
        <ele>966</ele>
        <time>2023-04-05T17:03:49Z</time>
      </trkpt>
      <trkpt lat="45.8887" lon="3.7527">
        <ele>962</ele>
        <time>2023-04-05T17:04:19Z</time>
      </trkpt>
      <trkpt lat="45.88801" lon="3.7528">
        <ele>953</ele>
        <time>2023-04-05T17:05:14Z</time>
      </trkpt>
      <trkpt lat="45.8877" lon="3.75291">
        <ele>949</ele>
        <time>2023-04-05T17:05:40Z</time>
      </trkpt>
      <trkpt lat="45.88697" lon="3.75362">
        <ele>939</ele>
        <time>2023-04-05T17:06:51Z</time>
      </trkpt>
      <trkpt lat="45.88669" lon="3.754">
        <ele>937</ele>
        <time>2023-04-05T17:07:21Z</time>
      </trkpt>
    </trkseg>
  </trk>
</gpx>